ジッダ の空港の天気 - METARとTAF

キング・アブドゥルアズィーズ国際空港(ジッダ) ( OEJN / JED ) - サウジアラビア ジッダ
飛行場実況気象(Metar)
観測時間06/18 02:00 AST (06/17 23:00 UTC)
風向・風速北 3m/s
視程10km以上
天気現象
なし
気温31℃
湿度49%
気圧1006hPa
METAROEJN 172300Z 36006KT CAVOK 31/19 Q1006 NOSIG
過去の天気等 Google飛行場航空写真 Wunderground天気予報

過去48時間のMETAR

飛行場予報(TAF)
発表時間: 6/18 02:00 AST (6/17 23:00 UTC)
予報対象時間: 18日3時 AST ~ 19日9時 AST
風向・風速北北東 3m/s
視程10km以上
少しの雲 雲底高度 1220m
18日7時 AST ~ 18日9時 AST に徐々に
風向・風速北北西 8m/s
TAF OEJN 172300Z 1800/1906 03006KT 9999 FEW040
BECMG 1804/1806 33016KT